메인 페이지
METAR-TAF:

METAR-TAF

공항 :

레이캬비크, 아이슬란드

위도: 64-08N, 경도: 021-54W, 고도: 54m

현재 날씨관측

예보는 18분 전, 05:31시(UTC)에 발표되었습니다.
남서21kt, 순간 최대 풍속 32kt
온도 0°C
습도 86%
기압 1002 hPa
시정: 1500m
고도 1500ft 상공 구름 많음, 적란운.
소낙눈

METAR: BIRK 200531Z 22021G32KT 1500 R19/0700V1500N SHSN BKN015CB 00/M02 Q1002

시각: 05:49 (05:49 UTC)

예보

예보는 1 시간 0분 전, 04:49시(UTC)에 발표되었습니다.
예보 대상 시간: 20일 06시부터 21일 06시까지 (UTC)
남남서20kt, 순간 최대 풍속 35kt
시정: 9000m
고도 1500ft 상공 구름 조금, 적란운.
고도 2500ft 상공 구름 많음
약한소나기, 눈
전환 중
20일 06시부터 20일 09시까지 (UTC)
남남서17kt
일시적
20일 06시부터 21일 03시까지 (UTC)
시정: 2500m
고도 800ft 상공 구름 많음, 적란운.
소낙눈
전환 중
21일 03시부터 21일 06시까지 (UTC)
동남동20kt, 순간 최대 풍속 30kt
시정: 4000m
고도 1000ft 상공 구름 많음
고도 1500ft 상공 흐림
비, 눈

TAF: BIRK 200449Z 2006/2106 21020G35KT 9000 -SHRASN FEW015CB BKN025 TX02/2006Z TNM00/2021Z BECMG 2006/2009 20017KT TEMPO 2006/2103 2500 SHSN BKN008CB BECMG 2103/2106 11020G30KT 4000 RASN BKN010 OVC015

4,000개 이상의 공항 관측 자료 및 예보 (METAR 및 TAF 보고).

지도상에서 검색 가능한 기상관측소가 노란 점과 빨간 점으로 표시되어 있습니다.

기상관측소 명을 보려면 표시 위로 마우스를 이동하세요.

날씨 관측과 예보를 보려면 클릭하세요.

지도 변경 : 확대하려면 엑스 표시가 있는 녹색 버튼, 축소하려면 빼기 표시가 있는 녹색 버튼, 다음 페이지의 지도를 보려면 녹색 화살표를 클릭하세요.


METAR-TAF: